Time;durP1;ratioP1;P1;durP2;ratioP2;P2;SDS_P1;SDS_P2;PMS_P1;PMS_P2;Temp;Humidity;BMP_temperature;BMP_pressure;BME280_temperature;BME280_humidity;BME280_pressure;Samples;Min_cycle;Max_cycle;Signal;HPM_P1;HPM_P2
2022/01/05 00:00:00;;;;;;;9.05;2.03;;;1.50;99.90;;;;;;5086555;28;20041;-69
2022/01/05 00:02:26;;;;;;;8.43;2.20;;;1.50;99.90;;;;;;5086379;28;20055;-69
2022/01/05 00:04:53;;;;;;;7.70;2.35;;;1.60;99.90;;;;;;5088191;28;20044;-69
2022/01/05 00:07:18;;;;;;;6.50;2.13;;;1.60;99.90;;;;;;5079226;28;20048;-69
2022/01/05 00:09:44;;;;;;;5.25;1.80;;;1.70;99.90;;;;;;5082766;28;20047;-69
2022/01/05 00:12:11;;;;;;;9.95;2.25;;;1.80;99.90;;;;;;5096731;28;20039;-69
2022/01/05 00:14:36;;;;;;;7.28;2.85;;;1.50;99.90;;;;;;5084912;28;20410;-69
2022/01/05 00:17:02;;;;;;;7.15;2.15;;;1.40;99.90;;;;;;5083063;28;20050;-69
2022/01/05 00:19:28;;;;;;;12.48;2.08;;;1.40;99.90;;;;;;5084564;28;20060;-69
2022/01/05 00:21:54;;;;;;;8.15;2.00;;;1.40;99.90;;;;;;5080960;28;20040;-69
2022/01/05 00:24:19;;;;;;;7.55;2.10;;;1.40;99.90;;;;;;5078489;28;20048;-69
2022/01/05 00:26:45;;;;;;;6.90;2.65;;;1.60;99.90;;;;;;5075271;28;20059;-69
2022/01/05 00:29:11;;;;;;;6.53;1.90;;;1.30;99.90;;;;;;5084363;28;20056;-69
2022/01/05 00:31:37;;;;;;;6.18;2.53;;;1.30;99.90;;;;;;5083299;28;20097;-69
2022/01/05 00:34:03;;;;;;;5.82;2.97;;;1.40;99.90;;;;;;5095974;28;20058;-68
2022/01/05 00:36:29;;;;;;;5.93;1.73;;;1.30;99.90;;;;;;5091679;28;20048;-69
2022/01/05 00:38:54;;;;;;;9.55;1.88;;;1.30;99.90;;;;;;5080289;28;20040;-69
2022/01/05 00:41:20;;;;;;;8.75;1.90;;;1.40;99.90;;;;;;5079680;28;20048;-69
2022/01/05 00:43:46;;;;;;;6.68;1.70;;;1.50;99.90;;;;;;5079432;28;20045;-68
2022/01/05 00:46:12;;;;;;;6.25;1.92;;;1.50;99.90;;;;;;5078786;28;20067;-68
2022/01/05 00:48:38;;;;;;;7.85;1.95;;;1.60;99.90;;;;;;5078114;28;20056;-69
2022/01/05 00:51:06;;;;;;;5.47;1.83;;;1.60;99.90;;;;;;5080205;28;20059;-69
2022/01/05 00:53:33;;;;;;;6.35;1.80;;;1.70;99.90;;;;;;5079339;28;20051;-70
2022/01/05 00:55:58;;;;;;;6.35;1.60;;;1.60;99.90;;;;;;5078594;28;20109;-70
2022/01/05 00:58:24;;;;;;;7.00;2.10;;;1.60;99.90;;;;;;5084465;28;20044;-69
2022/01/05 01:00:50;;;;;;;5.20;1.67;;;1.60;99.90;;;;;;5079990;28;20555;-68
2022/01/05 01:03:16;;;;;;;8.25;2.08;;;1.60;99.90;;;;;;5061248;28;20044;-68
2022/01/05 01:05:41;;;;;;;6.65;2.33;;;1.60;99.90;;;;;;5078661;28;20053;-69
2022/01/05 01:08:07;;;;;;;8.65;1.52;;;1.60;99.90;;;;;;5087079;28;20732;-69
2022/01/05 01:10:33;;;;;;;7.50;1.50;;;1.70;99.90;;;;;;5051900;28;20093;-68
2022/01/05 01:12:59;;;;;;;5.85;1.50;;;1.60;99.90;;;;;;5090995;28;20116;-69
2022/01/05 01:15:24;;;;;;;5.13;1.30;;;1.70;99.90;;;;;;5060976;28;20074;-68
2022/01/05 01:17:50;;;;;;;5.05;1.63;;;1.60;99.90;;;;;;5079546;28;20036;-69
2022/01/05 01:20:16;;;;;;;7.82;1.73;;;1.60;99.90;;;;;;5079420;28;20076;-68
2022/01/05 01:22:43;;;;;;;3.90;1.42;;;1.60;99.90;;;;;;5094931;28;20059;-69
2022/01/05 01:25:09;;;;;;;4.55;1.90;;;1.60;99.90;;;;;;5081375;28;20371;-69
2022/01/05 01:27:35;;;;;;;4.63;1.30;;;1.60;99.90;;;;;;5086305;28;20071;-69
2022/01/05 01:30:02;;;;;;;4.57;1.20;;;1.60;99.90;;;;;;5094948;28;20047;-69
2022/01/05 01:32:27;;;;;;;7.55;1.33;;;1.60;99.90;;;;;;5084964;28;20046;-69
2022/01/05 01:34:53;;;;;;;7.72;1.50;;;1.60;99.90;;;;;;5079229;28;20033;-69
2022/01/05 01:37:19;;;;;;;8.50;1.73;;;1.60;99.90;;;;;;5060841;28;20064;-69
2022/01/05 01:39:45;;;;;;;6.30;1.25;;;1.60;99.90;;;;;;5076796;28;20098;-69
2022/01/05 01:42:10;;;;;;;6.55;1.40;;;1.60;99.90;;;;;;5077385;28;20040;-68
2022/01/05 01:44:36;;;;;;;5.50;1.83;;;1.90;99.90;;;;;;5082980;28;20063;-69
2022/01/05 01:47:03;;;;;;;7.70;1.60;;;1.60;99.90;;;;;;5087109;28;20051;-68
2022/01/05 01:49:28;;;;;;;6.90;1.60;;;1.70;99.90;;;;;;5077174;28;20128;-69
2022/01/05 01:51:54;;;;;;;5.57;1.40;;;1.60;99.90;;;;;;5088525;28;20052;-69
2022/01/05 01:54:20;;;;;;;4.03;1.30;;;1.70;99.90;;;;;;5086221;28;20036;-68
2022/01/05 01:56:47;;;;;;;5.03;2.08;;;1.70;99.90;;;;;;5078867;28;20044;-69
2022/01/05 01:59:13;;;;;;;5.15;1.35;;;1.60;99.90;;;;;;5079111;28;20070;-69
2022/01/05 02:01:42;;;;;;;9.70;1.40;;;1.60;99.90;;;;;;5079031;28;20052;-69
2022/01/05 02:04:09;;;;;;;3.83;1.30;;;1.60;99.90;;;;;;5092729;28;20091;-69
2022/01/05 02:06:35;;;;;;;5.85;1.60;;;1.60;99.90;;;;;;5083790;28;20048;-69
2022/01/05 02:09:01;;;;;;;4.70;1.83;;;1.50;99.90;;;;;;5082985;28;20051;-71
2022/01/05 02:11:27;;;;;;;6.78;1.35;;;1.60;99.90;;;;;;5077526;28;20053;-69
2022/01/05 02:13:53;;;;;;;8.18;1.45;;;1.60;99.90;;;;;;5078385;28;20043;-69
2022/01/05 02:16:29;;;;;;;7.13;1.33;;;1.60;99.90;;;;;;5084778;28;20052;-69
2022/01/05 02:18:58;;;;;;;7.53;1.27;;;1.80;99.90;;;;;;5077428;28;20043;-70
2022/01/05 02:21:32;;;;;;;8.93;1.85;;;1.60;99.90;;;;;;5078982;28;20041;-72
2022/01/05 02:23:59;;;;;;;5.88;1.52;;;1.60;99.90;;;;;;5078401;28;20040;-71
2022/01/05 02:26:25;;;;;;;7.35;1.90;;;1.60;99.90;;;;;;5078625;28;20040;-70
2022/01/05 02:28:51;;;;;;;7.75;1.65;;;1.60;99.90;;;;;;5078650;28;20127;-70
2022/01/05 02:31:17;;;;;;;8.25;1.33;;;1.60;99.90;;;;;;5085219;28;20048;-70
2022/01/05 02:33:42;;;;;;;3.75;1.55;;;1.60;99.90;;;;;;5105479;28;20050;-70
2022/01/05 02:36:11;;;;;;;3.90;1.67;;;1.60;99.90;;;;;;5079266;28;20057;-70
2022/01/05 02:38:37;;;;;;;13.05;2.22;;;1.60;99.90;;;;;;5078998;28;20045;-70
2022/01/05 02:41:09;;;;;;;6.70;1.90;;;1.60;99.90;;;;;;5078037;28;20084;-70
2022/01/05 02:43:36;;;;;;;6.60;1.70;;;1.70;99.90;;;;;;5059661;28;20135;-70
2022/01/05 02:46:03;;;;;;;7.72;1.70;;;1.60;99.90;;;;;;5078285;28;20044;-70
2022/01/05 02:48:30;;;;;;;7.55;1.88;;;1.60;99.90;;;;;;5078577;28;20079;-70
2022/01/05 02:50:57;;;;;;;5.97;1.65;;;1.60;99.90;;;;;;5086813;28;20445;-70
2022/01/05 02:53:23;;;;;;;10.13;1.73;;;1.60;99.90;;;;;;5077564;28;20096;-68
2022/01/05 02:55:50;;;;;;;6.20;1.60;;;1.60;99.90;;;;;;5080207;28;20116;-70
2022/01/05 02:58:16;;;;;;;6.97;1.70;;;1.60;99.90;;;;;;5080431;28;20045;-70
2022/01/05 03:00:42;;;;;;;8.10;2.05;;;1.70;99.90;;;;;;5082198;28;20111;-70
2022/01/05 03:03:07;;;;;;;9.35;2.22;;;1.60;99.90;;;;;;5080637;28;20534;-71
2022/01/05 03:05:33;;;;;;;4.82;1.55;;;1.50;99.90;;;;;;5081405;28;20075;-69
2022/01/05 03:07:59;;;;;;;9.88;2.28;;;1.60;99.90;;;;;;5107085;28;20051;-69
2022/01/05 03:10:24;;;;;;;5.38;1.73;;;1.50;99.90;;;;;;5100677;28;20108;-70
2022/01/05 03:12:50;;;;;;;8.18;2.30;;;1.50;99.90;;;;;;5064381;28;20048;-70
2022/01/05 03:15:17;;;;;;;7.35;2.90;;;1.50;99.90;;;;;;5058586;28;20601;-70
2022/01/05 03:17:43;;;;;;;6.57;1.80;;;1.50;99.90;;;;;;5097823;28;20056;-70
2022/01/05 03:20:10;;;;;;;5.20;1.70;;;1.50;99.90;;;;;;5084415;28;20119;-70
2022/01/05 03:22:37;;;;;;;4.90;1.80;;;1.50;99.90;;;;;;5062955;28;20064;-70
2022/01/05 03:25:04;;;;;;;8.50;1.63;;;1.70;99.90;;;;;;5080643;28;20428;-69
2022/01/05 03:27:29;;;;;;;8.50;1.90;;;1.50;99.90;;;;;;5082268;28;20113;-69
2022/01/05 03:29:55;;;;;;;6.25;1.90;;;1.60;99.90;;;;;;5083598;28;20101;-70
2022/01/05 03:32:22;;;;;;;9.77;1.83;;;1.60;99.90;;;;;;5086383;28;20068;-70
2022/01/05 03:34:50;;;;;;;5.97;2.15;;;2.00;99.90;;;;;;5082827;28;20084;-72
2022/01/05 03:37:16;;;;;;;8.68;2.03;;;1.70;99.90;;;;;;5082125;28;20048;-73
2022/01/05 03:39:42;;;;;;;6.72;1.88;;;1.80;99.90;;;;;;5064717;28;20105;-71
2022/01/05 03:42:07;;;;;;;5.65;2.00;;;1.80;99.90;;;;;;5082071;28;20044;-70
2022/01/05 03:44:34;;;;;;;9.48;1.95;;;;;;;;;;5079096;28;20056;-71
2022/01/05 03:47:00;;;;;;;8.65;2.30;;;1.90;99.90;;;;;;5081821;28;20037;-72
2022/01/05 03:49:26;;;;;;;7.30;1.92;;;1.90;99.90;;;;;;5087949;28;20067;-71
2022/01/05 03:51:52;;;;;;;9.60;2.10;;;1.90;99.90;;;;;;5078389;28;20036;-71
2022/01/05 03:54:18;;;;;;;13.55;1.98;;;1.90;99.90;;;;;;5051924;28;20049;-70
2022/01/05 03:56:44;;;;;;;11.73;1.80;;;1.90;99.90;;;;;;5080849;28;20071;-72
2022/01/05 03:59:10;;;;;;;10.48;2.13;;;1.90;99.90;;;;;;5079658;28;20037;-70
2022/01/05 04:01:36;;;;;;;5.75;1.83;;;2.20;99.90;;;;;;5080031;28;20051;-71
2022/01/05 04:04:02;;;;;;;9.77;1.90;;;1.80;99.90;;;;;;5079590;28;20049;-70
2022/01/05 04:06:28;;;;;;;14.25;2.75;;;1.80;99.90;;;;;;5081705;28;20044;-70
2022/01/05 04:08:53;;;;;;;9.07;2.15;;;1.80;99.90;;;;;;5113656;28;20101;-70
2022/01/05 04:11:19;;;;;;;6.22;1.92;;;1.80;99.90;;;;;;5099201;28;20048;-70
2022/01/05 04:13:45;;;;;;;15.93;1.83;;;1.70;99.90;;;;;;5094726;28;20052;-70
2022/01/05 04:16:11;;;;;;;8.57;2.67;;;2.20;99.90;;;;;;5095093;28;20052;-71
2022/01/05 04:18:36;;;;;;;6.28;2.03;;;1.60;99.90;;;;;;5083677;28;20074;-70
2022/01/05 04:21:02;;;;;;;13.77;2.88;;;1.60;99.90;;;;;;5079508;28;20138;-70
2022/01/05 04:23:28;;;;;;;8.35;2.53;;;1.60;99.90;;;;;;5080196;28;20044;-70
2022/01/05 04:25:54;;;;;;;9.63;1.98;;;1.60;99.90;;;;;;5061609;28;20048;-70
2022/01/05 04:28:19;;;;;;;7.18;2.33;;;1.60;99.90;;;;;;5083175;28;20040;-70
2022/01/05 04:30:45;;;;;;;8.20;1.75;;;2.00;99.90;;;;;;5066599;28;20055;-70
2022/01/05 04:33:11;;;;;;;8.68;2.05;;;1.50;99.90;;;;;;5087254;28;20106;-69
2022/01/05 04:35:36;;;;;;;12.13;3.20;;;1.50;99.90;;;;;;5087477;28;20053;-69
2022/01/05 04:38:02;;;;;;;8.80;1.98;;;1.40;99.90;;;;;;5062675;28;20094;-70
2022/01/05 04:40:31;;;;;;;5.82;1.63;;;1.50;99.90;;;;;;5061475;28;20460;-69
2022/01/05 04:42:57;;;;;;;9.32;2.10;;;1.20;99.90;;;;;;5062657;28;20044;-68
2022/01/05 04:45:22;;;;;;;5.30;1.80;;;1.40;99.90;;;;;;5078275;28;20067;-69
2022/01/05 04:47:48;;;;;;;9.63;1.92;;;1.50;99.90;;;;;;5078539;28;20106;-69
2022/01/05 04:50:15;;;;;;;9.50;1.75;;;1.50;99.90;;;;;;5061584;28;20044;-68
2022/01/05 04:52:41;;;;;;;10.20;2.65;;;1.50;99.90;;;;;;5085427;28;20496;-68
2022/01/05 04:55:08;;;;;;;9.77;2.15;;;1.50;99.90;;;;;;5080217;28;20033;-69
2022/01/05 04:57:34;;;;;;;7.05;1.90;;;1.50;99.90;;;;;;5077856;28;20036;-68
2022/01/05 05:00:00;;;;;;;8.60;2.05;;;1.60;99.90;;;;;;5078973;28;20040;-69
2022/01/05 05:02:26;;;;;;;7.57;2.10;;;1.50;99.90;;;;;;5079360;28;20048;-69
2022/01/05 05:04:51;;;;;;;8.68;2.85;;;1.50;99.90;;;;;;5090579;28;20058;-70
2022/01/05 05:07:18;;;;;;;8.30;1.75;;;1.40;99.90;;;;;;5100501;28;20104;-71
2022/01/05 05:09:43;;;;;;;7.82;2.10;;;1.50;99.90;;;;;;5063718;28;20044;-70
2022/01/05 05:12:10;;;;;;;7.57;2.03;;;1.50;99.90;;;;;;5067892;28;20051;-70
2022/01/05 05:14:37;;;;;;;7.45;1.75;;;1.50;99.90;;;;;;5086794;28;20040;-70
2022/01/05 05:17:03;;;;;;;11.80;2.28;;;1.50;99.90;;;;;;5079475;28;20044;-70
2022/01/05 05:19:31;;;;;;;11.35;2.55;;;1.50;99.90;;;;;;5076938;28;20053;-71
2022/01/05 05:21:57;;;;;;;9.63;2.42;;;1.50;99.90;;;;;;5078212;28;20103;-71
2022/01/05 05:24:23;;;;;;;15.38;3.38;;;1.50;99.90;;;;;;5078336;28;20047;-71
2022/01/05 05:26:48;;;;;;;8.77;2.40;;;1.50;99.90;;;;;;5076899;28;20412;-71
2022/01/05 05:29:14;;;;;;;10.02;3.17;;;1.50;99.90;;;;;;5077962;28;20040;-69
2022/01/05 05:31:40;;;;;;;4.43;2.00;;;1.50;99.90;;;;;;5060314;28;20127;-70
2022/01/05 05:34:06;;;;;;;7.15;1.98;;;1.50;99.90;;;;;;5091577;28;20063;-71
2022/01/05 05:36:31;;;;;;;13.48;2.80;;;1.60;99.90;;;;;;5061122;28;20055;-71
2022/01/05 05:38:57;;;;;;;4.97;2.20;;;1.80;99.90;;;;;;5079300;28;20036;-70
2022/01/05 05:41:23;;;;;;;7.10;2.20;;;1.70;99.90;;;;;;5060892;28;20049;-69
2022/01/05 05:43:49;;;;;;;7.00;2.10;;;1.70;99.90;;;;;;5078300;28;20041;-71
2022/01/05 05:46:15;;;;;;;6.30;2.10;;;1.80;99.90;;;;;;5077441;28;20051;-71
2022/01/05 05:48:42;;;;;;;9.98;2.20;;;1.90;99.90;;;;;;5060011;28;20048;-71
2022/01/05 05:51:07;;;;;;;11.38;2.33;;;1.90;99.90;;;;;;5077668;28;20128;-70
2022/01/05 05:53:33;;;;;;;8.48;2.22;;;1.90;99.90;;;;;;5062903;28;20079;-73
2022/01/05 05:55:59;;;;;;;7.60;2.42;;;1.90;99.90;;;;;;5082809;28;20032;-70
2022/01/05 05:58:24;;;;;;;9.05;2.58;;;2.00;99.90;;;;;;5077527;28;20571;-71
2022/01/05 06:00:50;;;;;;;9.48;2.70;;;2.00;99.90;;;;;;5077143;28;20052;-72
2022/01/05 06:03:17;;;;;;;8.95;3.00;;;2.00;99.90;;;;;;5044245;28;20060;-70
2022/01/05 06:05:42;;;;;;;9.05;1.88;;;2.10;99.90;;;;;;5075875;28;20524;-70
2022/01/05 06:08:08;;;;;;;9.90;2.00;;;2.10;99.90;;;;;;5100914;28;20129;-71
2022/01/05 06:10:34;;;;;;;10.65;2.42;;;2.30;99.90;;;;;;5080257;28;20055;-70
2022/01/05 06:13:00;;;;;;;8.20;2.08;;;2.10;99.90;;;;;;5083890;28;20044;-70
2022/01/05 06:15:25;;;;;;;7.63;1.88;;;2.20;99.90;;;;;;5077260;28;20080;-70
2022/01/05 06:17:51;;;;;;;7.70;2.15;;;2.20;99.90;;;;;;5076947;28;20043;-70
2022/01/05 06:20:17;;;;;;;8.80;2.35;;;2.40;99.90;;;;;;5077046;28;20051;-71
2022/01/05 06:22:43;;;;;;;10.10;3.42;;;2.20;99.90;;;;;;5088533;28;20056;-71
2022/01/05 06:25:10;;;;;;;7.03;2.33;;;2.20;99.90;;;;;;5065537;28;20037;-70
2022/01/05 06:27:36;;;;;;;9.77;2.45;;;2.50;99.90;;;;;;5076297;28;20045;-72
2022/01/05 06:30:06;;;;;;;9.82;2.22;;;2.40;99.90;;;;;;5081509;28;20091;-72
2022/01/05 06:32:34;;;;;;;15.75;2.85;;;2.50;99.90;;;;;;5100118;28;20119;-71
2022/01/05 06:35:03;;;;;;;6.88;2.42;;;2.50;99.90;;;;;;5085501;28;20047;-72
2022/01/05 06:37:28;;;;;;;9.90;2.47;;;2.50;99.90;;;;;;5092252;28;20052;-72
2022/01/05 06:39:54;;;;;;;11.45;2.42;;;3.70;99.90;;;;;;5048216;28;20047;-73
2022/01/05 06:42:20;;;;;;;12.57;2.65;;;2.60;99.90;;;;;;5080994;28;20033;-69
2022/01/05 06:44:46;;;;;;;7.60;2.45;;;2.60;99.90;;;;;;5081300;28;20076;-73
2022/01/05 06:47:11;;;;;;;9.77;2.42;;;2.60;99.90;;;;;;5081104;28;20085;-72
2022/01/05 06:49:37;;;;;;;8.00;2.55;;;2.70;99.90;;;;;;5080887;28;20056;-72
2022/01/05 06:52:04;;;;;;;11.50;2.40;;;2.70;99.90;;;;;;5064112;28;20056;-71
2022/01/05 06:54:30;;;;;;;12.63;3.28;;;2.70;99.90;;;;;;5081048;28;20062;-73
2022/01/05 06:56:56;;;;;;;6.90;2.20;;;3.20;99.90;;;;;;5080330;28;20052;-72
2022/01/05 06:59:22;;;;;;;10.07;3.15;;;2.90;99.90;;;;;;5064566;28;20036;-73
2022/01/05 07:01:47;;;;;;;14.05;2.22;;;3.00;99.90;;;;;;5081174;28;20063;-72
2022/01/05 07:04:14;;;;;;;14.52;1.90;;;3.10;99.90;;;;;;5080896;28;20048;-72
2022/01/05 07:06:40;;;;;;;7.18;2.13;;;3.20;99.90;;;;;;5067417;28;20054;-73
2022/01/05 07:09:05;;;;;;;9.18;2.10;;;3.40;99.90;;;;;;5093924;28;20044;-71
2022/01/05 07:11:32;;;;;;;12.77;2.42;;;3.20;99.90;;;;;;5081928;28;20137;-70
2022/01/05 07:13:58;;;;;;;12.18;2.13;;;3.20;99.90;;;;;;5081094;28;20143;-70
2022/01/05 07:16:24;;;;;;;7.90;2.65;;;3.20;99.90;;;;;;5080658;28;20040;-70
2022/01/05 07:18:50;;;;;;;15.05;2.38;;;3.10;99.90;;;;;;5066603;28;20058;-70
2022/01/05 07:21:16;;;;;;;10.32;2.90;;;3.10;99.90;;;;;;5088503;28;20047;-71
2022/01/05 07:23:41;;;;;;;7.35;2.15;;;3.20;99.90;;;;;;5079736;28;20079;-71
2022/01/05 07:26:07;;;;;;;8.43;1.95;;;3.10;99.90;;;;;;5081924;28;20106;-71
2022/01/05 07:28:33;;;;;;;4.97;1.55;;;3.10;99.90;;;;;;5081702;28;20057;-72
2022/01/05 07:30:58;;;;;;;8.00;2.08;;;3.20;99.90;;;;;;5080461;28;20110;-72
2022/01/05 07:33:26;;;;;;;10.10;1.63;;;3.20;99.90;;;;;;5101968;28;20039;-71
2022/01/05 07:35:52;;;;;;;5.47;1.77;;;3.50;99.90;;;;;;5082611;28;20053;-71
2022/01/05 07:38:18;;;;;;;5.95;1.33;;;3.10;99.90;;;;;;5087116;28;20062;-71
2022/01/05 07:40:44;;;;;;;2.15;1.13;;;3.10;99.90;;;;;;5087981;28;20094;-71
2022/01/05 07:43:09;;;;;;;7.47;1.40;;;3.10;99.90;;;;;;5080148;28;20040;-71
2022/01/05 07:45:35;;;;;;;5.38;1.20;;;3.00;99.90;;;;;;5081007;28;20048;-70
2022/01/05 07:48:05;;;;;;;5.95;1.52;;;2.80;99.90;;;;;;5079760;28;20100;-71
2022/01/05 07:50:32;;;;;;;3.88;1.20;;;2.70;99.90;;;;;;5080906;28;20055;-70
2022/01/05 07:53:01;;;;;;;3.25;0.95;;;2.70;99.90;;;;;;5096222;28;20107;-71
2022/01/05 07:55:30;;;;;;;4.43;0.82;;;2.70;99.90;;;;;;5090076;28;20044;-71
2022/01/05 07:57:56;;;;;;;3.55;1.13;;;2.50;99.90;;;;;;5080288;28;20076;-68
2022/01/05 08:00:21;;;;;;;4.93;1.52;;;2.60;99.90;;;;;;5080647;28;20434;-69
2022/01/05 08:02:47;;;;;;;5.25;1.38;;;2.40;99.90;;;;;;5090798;28;20123;-71
2022/01/05 08:05:13;;;;;;;5.40;1.10;;;2.40;99.90;;;;;;5090403;28;20056;-70
2022/01/05 08:07:39;;;;;;;3.15;1.20;;;2.40;99.90;;;;;;5096488;28;20204;-69
2022/01/05 08:10:05;;;;;;;7.78;1.73;;;2.20;99.90;;;;;;5078641;28;20128;-69
2022/01/05 08:12:31;;;;;;;4.43;1.25;;;2.20;99.90;;;;;;5081059;28;20040;-69
2022/01/05 08:14:56;;;;;;;6.53;1.85;;;2.10;99.90;;;;;;5085400;28;20059;-69
2022/01/05 08:17:22;;;;;;;5.00;1.88;;;1.90;99.90;;;;;;5078075;28;20041;-68
2022/01/05 08:19:48;;;;;;;7.95;2.08;;;1.80;99.90;;;;;;5083968;28;20048;-69
2022/01/05 08:22:13;;;;;;;6.10;2.33;;;1.90;99.90;;;;;;5082154;28;20047;-70
2022/01/05 08:24:39;;;;;;;8.05;2.88;;;1.90;99.90;;;;;;5066851;28;20079;-70
2022/01/05 08:27:06;;;;;;;9.38;2.80;;;1.90;99.90;;;;;;5092385;28;20044;-69
2022/01/05 08:29:31;;;;;;;6.13;2.20;;;1.90;99.90;;;;;;5089632;28;20045;-70
2022/01/05 08:32:02;;;;;;;10.18;2.78;;;2.00;99.90;;;;;;5088807;28;20048;-69
2022/01/05 08:34:31;;;;;;;11.20;2.85;;;2.00;99.90;;;;;;5054394;28;20040;-69
2022/01/05 08:37:00;;;;;;;9.48;3.15;;;2.30;99.90;;;;;;5082450;28;20068;-68
2022/01/05 08:39:28;;;;;;;4.97;2.10;;;2.20;99.90;;;;;;5085585;28;20051;-69
2022/01/05 08:41:54;;;;;;;11.45;3.05;;;2.40;99.90;;;;;;5079858;28;20033;-68
2022/01/05 08:44:20;;;;;;;11.18;2.80;;;2.40;99.90;;;;;;5099304;28;20283;-70
2022/01/05 08:46:46;;;;;;;9.68;2.47;;;2.60;99.90;;;;;;5082238;28;20076;-69
2022/01/05 08:49:11;;;;;;;10.15;2.78;;;2.80;99.90;;;;;;5077553;28;20503;-69
2022/01/05 08:51:38;;;;;;;5.50;2.13;;;2.90;99.90;;;;;;5061959;28;20040;-69
2022/01/05 08:54:05;;;;;;;10.90;2.05;;;3.00;99.90;;;;;;5078387;28;20108;-69
2022/01/05 08:56:31;;;;;;;12.93;2.30;;;3.20;99.90;;;;;;5079210;28;20060;-70
2022/01/05 08:58:57;;;;;;;11.30;1.80;;;3.30;99.90;;;;;;5079570;28;20055;-69
2022/01/05 09:01:24;;;;;;;4.18;1.00;;;3.40;99.90;;;;;;5077275;28;20044;-71
2022/01/05 09:03:52;;;;;;;6.43;1.70;;;3.50;99.90;;;;;;5078654;28;20104;-68
2022/01/05 09:06:22;;;;;;;8.10;1.30;;;3.60;99.90;;;;;;5078878;28;20047;-70
2022/01/05 09:08:48;;;;;;;7.68;2.22;;;3.70;99.90;;;;;;5119289;28;20044;-70
2022/01/05 09:11:15;;;;;;;5.53;1.40;;;3.70;99.90;;;;;;5093236;28;20523;-72
2022/01/05 09:13:41;;;;;;;6.13;1.30;;;3.80;99.90;;;;;;5099273;28;20056;-72
2022/01/05 09:16:07;;;;;;;3.97;1.15;;;3.90;99.90;;;;;;5098275;28;20101;-71
2022/01/05 09:18:33;;;;;;;3.40;1.10;;;3.90;99.90;;;;;;5097422;28;20048;-71
2022/01/05 09:20:59;;;;;;;9.25;2.53;;;3.90;99.90;;;;;;5098514;28;20052;-72
2022/01/05 09:23:25;;;;;;;5.25;1.48;;;4.00;99.90;;;;;;5098073;28;20051;-70
2022/01/05 09:25:51;;;;;;;11.85;1.55;;;4.10;99.90;;;;;;5099782;28;20040;-72
2022/01/05 09:28:17;;;;;;;5.78;1.63;;;4.10;99.90;;;;;;5097542;28;20390;-71
2022/01/05 09:30:45;;;;;;;8.80;1.60;;;4.20;99.90;;;;;;5097919;28;20600;-71
2022/01/05 09:33:13;;;;;;;6.22;1.52;;;4.30;99.90;;;;;;5099601;28;20147;-70
2022/01/05 09:35:39;;;;;;;6.32;1.23;;;4.50;99.90;;;;;;5098930;28;20047;-71
2022/01/05 09:43:14;;;;;;;5.43;2.08;;;4.60;99.90;;;;;;5079123;28;20405;-71
2022/01/05 09:46:09;;;;;;;5.80;1.30;;;4.50;99.90;;;;;;5076921;28;20075;-70
2022/01/05 09:48:56;;;;;;;6.93;1.30;;;4.60;99.90;;;;;;5053139;28;20063;-70
2022/01/05 09:51:27;;;;;;;2.75;1.13;;;4.50;99.90;;;;;;5083162;28;20032;-71
2022/01/05 09:53:54;;;;;;;6.55;1.25;;;4.50;99.90;;;;;;5080541;28;20384;-71
2022/01/05 09:56:19;;;;;;;6.00;1.10;;;4.60;99.90;;;;;;5097560;28;20515;-70
2022/01/05 09:58:45;;;;;;;6.03;2.25;;;4.60;99.90;;;;;;5091884;28;20050;-70
2022/01/05 10:01:11;;;;;;;7.47;1.38;;;4.60;99.90;;;;;;5057218;28;20108;-71
2022/01/05 10:03:37;;;;;;;6.18;1.55;;;4.60;99.90;;;;;;5076019;28;20648;-70
2022/01/05 10:06:03;;;;;;;13.60;1.83;;;4.70;99.90;;;;;;5077240;28;20075;-69
2022/01/05 10:08:28;;;;;;;7.53;1.27;;;4.90;99.90;;;;;;5079726;28;20048;-70
2022/01/05 10:10:54;;;;;;;8.30;2.83;;;5.10;99.90;;;;;;5086984;28;20111;-71
2022/01/05 10:13:20;;;;;;;8.60;1.80;;;5.30;99.90;;;;;;5080521;28;20047;-72
2022/01/05 10:15:46;;;;;;;6.65;2.53;;;5.40;99.90;;;;;;5094117;28;20051;-71
2022/01/05 10:18:18;;;;;;;8.90;2.05;;;5.40;99.90;;;;;;5075719;28;20048;-72
2022/01/05 10:21:01;;;;;;;11.40;1.85;;;5.60;99.90;;;;;;5078487;28;20045;-72
2022/01/05 10:23:38;;;;;;;6.68;1.70;;;5.30;99.90;;;;;;5078229;28;20569;-71
2022/01/05 10:26:26;;;;;;;8.43;1.65;;;5.20;99.90;;;;;;5084495;28;20457;-71
2022/01/05 10:29:05;;;;;;;12.57;1.92;;;5.40;99.90;;;;;;5090120;28;20087;-71
2022/01/05 10:31:39;;;;;;;16.48;2.40;;;5.60;99.90;;;;;;5084988;28;20033;-71
2022/01/05 10:34:21;;;;;;;7.65;1.80;;;6.00;99.90;;;;;;5084327;28;20044;-72
2022/01/05 10:36:48;;;;;;;16.73;2.78;;;6.20;99.90;;;;;;5077444;28;20028;-72
2022/01/05 10:39:17;;;;;;;8.77;1.92;;;6.20;99.90;;;;;;5076365;28;20047;-71
2022/01/05 10:41:44;;;;;;;8.93;2.05;;;6.00;99.90;;;;;;5097334;28;20044;-70
2022/01/05 10:44:19;;;;;;;10.48;1.90;;;5.90;99.90;;;;;;5100168;28;20043;-71
2022/01/05 10:46:48;;;;;;;9.18;3.13;;;5.80;99.90;;;;;;5085113;28;20040;-73
2022/01/05 10:49:28;;;;;;;10.48;2.40;;;6.00;99.90;;;;;;5086551;28;20051;-70
2022/01/05 10:51:55;;;;;;;12.68;2.15;;;6.10;99.90;;;;;;5082369;28;20049;-71
2022/01/05 10:54:24;;;;;;;10.65;2.47;;;6.30;99.90;;;;;;5091021;28;20099;-70
2022/01/05 10:56:50;;;;;;;9.85;2.10;;;6.80;99.90;;;;;;5079164;28;20041;-72
2022/01/05 10:59:28;;;;;;;17.45;2.45;;;6.70;99.90;;;;;;5086799;28;20036;-70
2022/01/05 11:01:54;;;;;;;10.57;2.88;;;6.40;99.90;;;;;;5088304;28;20137;-71
2022/01/05 11:04:22;;;;;;;9.63;2.20;;;6.20;99.90;;;;;;5075842;28;20052;-70
2022/01/05 11:06:58;;;;;;;7.18;2.03;;;6.50;99.90;;;;;;5076520;28;20045;-70
2022/01/05 11:09:24;;;;;;;;;;;6.80;99.90;;;;;;5089263;28;20048;-70
2022/01/05 11:11:50;;;;;;;7.03;2.10;;;7.00;99.90;;;;;;5077712;28;20033;-72
2022/01/05 11:14:30;;;;;;;15.38;3.42;;;6.90;99.90;;;;;;5076704;28;20504;-71
2022/01/05 11:17:00;;;;;;;8.25;2.60;;;7.00;99.90;;;;;;5093025;28;20489;-70
2022/01/05 11:19:30;;;;;;;15.20;2.85;;;6.90;99.90;;;;;;5081104;28;20044;-71
2022/01/05 11:22:02;;;;;;;9.55;2.60;;;6.80;99.90;;;;;;5082610;28;20045;-70
2022/01/05 11:24:31;;;;;;;7.97;1.73;;;6.80;99.90;;;;;;5081368;28;20044;-70
2022/01/05 11:26:57;;;;;;;12.75;2.72;;;6.60;99.90;;;;;;5078999;28;20044;-71
2022/01/05 11:29:23;;;;;;;10.98;1.95;;;6.60;99.90;;;;;;5080461;28;20102;-70
2022/01/05 11:31:50;;;;;;;13.05;2.35;;;6.50;99.90;;;;;;5088803;28;20044;-70
2022/01/05 11:34:16;;;;;;;15.32;3.25;;;6.50;99.90;;;;;;5081139;28;20076;-72
2022/01/05 11:36:43;;;;;;;11.38;2.42;;;6.40;99.90;;;;;;5079330;28;20043;-69
2022/01/05 11:39:09;;;;;;;7.80;2.83;;;6.40;99.90;;;;;;5084386;28;20447;-70
2022/01/05 11:41:43;;;;;;;8.48;2.38;;;6.50;99.90;;;;;;5081269;28;20029;-70
2022/01/05 11:44:09;;;;;;;8.73;2.25;;;6.50;99.90;;;;;;5113335;28;20047;-70
2022/01/05 11:46:35;;;;;;;8.35;2.80;;;6.60;99.90;;;;;;5090677;28;20040;-71
2022/01/05 11:49:08;;;;;;;11.52;2.53;;;6.80;99.90;;;;;;5081227;28;20044;-70
2022/01/05 11:51:42;;;;;;;10.70;2.53;;;6.60;99.90;;;;;;5080812;28;20171;-71
2022/01/05 11:54:12;;;;;;;11.43;2.40;;;6.60;99.90;;;;;;5086646;28;20070;-70
2022/01/05 11:56:49;;;;;;;11.07;3.33;;;6.80;99.90;;;;;;5090520;28;20040;-70
2022/01/05 11:59:33;;;;;;;10.52;2.00;;;6.70;99.90;;;;;;5101404;28;20044;-71
2022/01/05 12:02:10;;;;;;;9.80;1.98;;;6.70;99.90;;;;;;5078004;28;20182;-70
2022/01/05 12:04:56;;;;;;;;;;;6.70;99.90;;;;;;5088690;28;20216;-71
2022/01/05 12:07:53;;;;;;;7.38;1.83;;;6.80;99.90;;;;;;5088699;28;19930;-71
2022/01/05 12:10:23;;;;;;;9.00;2.10;;;6.80;99.90;;;;;;5091920;28;20063;-72
2022/01/05 12:13:02;;;;;;;10.75;1.85;;;6.80;99.90;;;;;;5096805;28;20049;-70
2022/01/05 12:15:51;;;;;;;4.60;1.60;;;6.80;99.90;;;;;;5079866;28;20055;-71
2022/01/05 12:18:26;;;;;;;7.13;1.83;;;6.90;99.90;;;;;;5093598;28;20071;-70
2022/01/05 12:20:52;;;;;;;8.65;1.92;;;7.10;99.90;;;;;;5088212;28;20134;-71
2022/01/05 12:23:24;;;;;;;20.83;3.03;;;7.00;99.90;;;;;;5088670;28;20123;-70
2022/01/05 12:26:02;;;;;;;6.82;1.65;;;7.10;99.90;;;;;;5086224;28;20469;-71
2022/01/05 12:28:36;;;;;;;10.82;1.70;;;7.10;99.90;;;;;;5087651;28;20074;-71
2022/01/05 12:31:02;;;;;;;9.27;1.25;;;7.30;99.90;;;;;;5095935;28;20488;-71
2022/01/05 12:33:42;;;;;;;6.57;1.33;;;7.30;99.90;;;;;;5096592;28;20049;-71
2022/01/05 12:36:08;;;;;;;8.27;1.30;;;7.20;99.90;;;;;;5080566;28;20037;-70
2022/01/05 12:38:47;;;;;;;7.18;1.30;;;7.20;99.90;;;;;;5091255;28;20582;-71
2022/01/05 12:41:25;;;;;;;4.47;1.10;;;7.10;99.90;;;;;;5083225;28;20048;-71
2022/01/05 12:43:52;;;;;;;5.60;1.10;;;7.10;99.90;;;;;;5079955;28;20084;-71
2022/01/05 12:46:35;;;;;;;6.90;1.42;;;7.20;99.90;;;;;;5079533;28;20044;-71
2022/01/05 12:49:04;;;;;;;5.32;1.00;;;7.10;99.90;;;;;;5066354;28;20040;-71
2022/01/05 12:51:44;;;;;;;6.50;1.13;;;7.00;99.90;;;;;;5089437;28;20099;-70
2022/01/05 12:54:19;;;;;;;4.53;1.52;;;7.00;99.90;;;;;;5089943;28;20067;-70
2022/01/05 12:56:49;;;;;;;5.80;1.23;;;6.90;99.90;;;;;;5086559;28;20090;-71
2022/01/05 12:59:21;;;;;;;9.82;2.40;;;6.90;99.90;;;;;;5086949;28;20083;-70
2022/01/05 13:01:49;;;;;;;7.15;1.38;;;6.90;99.90;;;;;;5080827;28;20099;-71